sensor_id;sensor_type;location;lat;lon;timestamp;P1;durP1;ratioP1;P2;durP2;ratioP2
70951;SDS011;69214;55.880;37.542;2023-06-22T00:01:58;13.68;;;2.03;;
70951;SDS011;69214;55.880;37.542;2023-06-22T00:04:24;9.13;;;2.00;;
70951;SDS011;69214;55.880;37.542;2023-06-22T00:06:51;8.48;;;1.92;;
70951;SDS011;69214;55.880;37.542;2023-06-22T00:09:17;9.18;;;2.00;;
70951;SDS011;69214;55.880;37.542;2023-06-22T00:11:42;8.48;;;1.75;;
70951;SDS011;69214;55.880;37.542;2023-06-22T00:14:08;5.90;;;2.10;;
70951;SDS011;69214;55.880;37.542;2023-06-22T00:16:34;11.38;;;2.20;;
70951;SDS011;69214;55.880;37.542;2023-06-22T00:19:00;6.95;;;1.75;;
70951;SDS011;69214;55.880;37.542;2023-06-22T00:21:28;10.30;;;1.92;;
70951;SDS011;69214;55.880;37.542;2023-06-22T00:23:53;9.47;;;2.10;;
70951;SDS011;69214;55.880;37.542;2023-06-22T00:26:20;7.50;;;1.75;;
70951;SDS011;69214;55.880;37.542;2023-06-22T00:28:46;5.88;;;1.58;;
70951;SDS011;69214;55.880;37.542;2023-06-22T00:31:12;6.07;;;1.92;;
70951;SDS011;69214;55.880;37.542;2023-06-22T00:33:38;8.60;;;2.03;;
70951;SDS011;69214;55.880;37.542;2023-06-22T00:36:05;8.98;;;2.00;;
70951;SDS011;69214;55.880;37.542;2023-06-22T00:38:33;11.23;;;2.28;;
70951;SDS011;69214;55.880;37.542;2023-06-22T00:41:01;8.27;;;1.90;;
70951;SDS011;69214;55.880;37.542;2023-06-22T00:43:27;6.90;;;1.90;;
70951;SDS011;69214;55.880;37.542;2023-06-22T00:45:55;9.77;;;2.00;;
70951;SDS011;69214;55.880;37.542;2023-06-22T00:48:22;6.72;;;1.90;;
70951;SDS011;69214;55.880;37.542;2023-06-22T00:50:48;7.65;;;1.70;;
70951;SDS011;69214;55.880;37.542;2023-06-22T00:53:17;6.72;;;1.98;;
70951;SDS011;69214;55.880;37.542;2023-06-22T00:55:44;5.47;;;2.13;;
70951;SDS011;69214;55.880;37.542;2023-06-22T00:58:12;7.03;;;1.83;;
70951;SDS011;69214;55.880;37.542;2023-06-22T01:00:41;7.63;;;1.90;;
70951;SDS011;69214;55.880;37.542;2023-06-22T01:03:07;10.10;;;1.85;;
70951;SDS011;69214;55.880;37.542;2023-06-22T01:05:35;6.57;;;1.83;;
70951;SDS011;69214;55.880;37.542;2023-06-22T01:08:06;9.90;;;1.98;;
70951;SDS011;69214;55.880;37.542;2023-06-22T01:10:50;6.18;;;2.05;;
70951;SDS011;69214;55.880;37.542;2023-06-22T01:16:30;10.02;;;1.88;;
70951;SDS011;69214;55.880;37.542;2023-06-22T01:22:03;5.72;;;2.10;;
70951;SDS011;69214;55.880;37.542;2023-06-22T01:24:40;7.28;;;1.80;;
70951;SDS011;69214;55.880;37.542;2023-06-22T01:29:52;6.90;;;1.70;;
70951;SDS011;69214;55.880;37.542;2023-06-22T01:32:30;5.28;;;1.63;;
70951;SDS011;69214;55.880;37.542;2023-06-22T01:35:01;5.65;;;1.73;;
70951;SDS011;69214;55.880;37.542;2023-06-22T01:37:31;6.78;;;1.77;;
70951;SDS011;69214;55.880;37.542;2023-06-22T01:40:00;5.20;;;1.52;;
70951;SDS011;69214;55.880;37.542;2023-06-22T01:42:29;6.40;;;1.57;;
70951;SDS011;69214;55.880;37.542;2023-06-22T01:44:56;7.17;;;1.80;;
70951;SDS011;69214;55.880;37.542;2023-06-22T01:47:22;7.45;;;1.80;;
70951;SDS011;69214;55.880;37.542;2023-06-22T01:49:50;7.90;;;1.83;;
70951;SDS011;69214;55.880;37.542;2023-06-22T01:52:20;6.88;;;1.70;;
70951;SDS011;69214;55.880;37.542;2023-06-22T01:54:47;5.47;;;1.92;;
70951;SDS011;69214;55.880;37.542;2023-06-22T01:57:14;4.57;;;1.30;;
70951;SDS011;69214;55.880;37.542;2023-06-22T02:00:02;5.97;;;1.50;;
70951;SDS011;69214;55.880;37.542;2023-06-22T02:02:59;8.60;;;2.08;;
70951;SDS011;69214;55.880;37.542;2023-06-22T02:05:33;10.63;;;1.88;;
70951;SDS011;69214;55.880;37.542;2023-06-22T02:08:05;7.55;;;1.60;;
70951;SDS011;69214;55.880;37.542;2023-06-22T02:10:37;6.80;;;1.70;;
70951;SDS011;69214;55.880;37.542;2023-06-22T02:13:07;5.27;;;1.47;;
70951;SDS011;69214;55.880;37.542;2023-06-22T02:15:35;7.63;;;1.63;;
70951;SDS011;69214;55.880;37.542;2023-06-22T02:18:02;6.95;;;1.60;;
70951;SDS011;69214;55.880;37.542;2023-06-22T02:20:48;7.65;;;1.70;;
70951;SDS011;69214;55.880;37.542;2023-06-22T02:23:14;8.33;;;1.70;;
70951;SDS011;69214;55.880;37.542;2023-06-22T02:25:40;5.13;;;1.70;;
70951;SDS011;69214;55.880;37.542;2023-06-22T02:28:10;6.70;;;1.90;;
70951;SDS011;69214;55.880;37.542;2023-06-22T02:30:37;6.97;;;1.50;;
70951;SDS011;69214;55.880;37.542;2023-06-22T02:33:07;5.57;;;1.77;;
70951;SDS011;69214;55.880;37.542;2023-06-22T02:35:33;6.40;;;2.07;;
70951;SDS011;69214;55.880;37.542;2023-06-22T02:38:02;7.32;;;1.75;;
70951;SDS011;69214;55.880;37.542;2023-06-22T02:40:29;6.28;;;1.98;;
70951;SDS011;69214;55.880;37.542;2023-06-22T02:42:57;5.70;;;1.65;;
70951;SDS011;69214;55.880;37.542;2023-06-22T02:45:27;10.10;;;2.00;;
70951;SDS011;69214;55.880;37.542;2023-06-22T02:47:54;8.73;;;2.00;;
70951;SDS011;69214;55.880;37.542;2023-06-22T02:50:21;5.47;;;1.83;;
70951;SDS011;69214;55.880;37.542;2023-06-22T02:52:47;6.03;;;1.70;;
70951;SDS011;69214;55.880;37.542;2023-06-22T02:55:14;6.75;;;2.00;;
70951;SDS011;69214;55.880;37.542;2023-06-22T02:57:44;5.78;;;1.95;;
70951;SDS011;69214;55.880;37.542;2023-06-22T03:00:12;6.55;;;1.95;;
70951;SDS011;69214;55.880;37.542;2023-06-22T03:02:47;5.60;;;1.60;;
70951;SDS011;69214;55.880;37.542;2023-06-22T03:05:14;4.53;;;1.45;;
70951;SDS011;69214;55.880;37.542;2023-06-22T03:07:41;7.30;;;2.25;;
70951;SDS011;69214;55.880;37.542;2023-06-22T03:10:11;5.47;;;1.92;;
70951;SDS011;69214;55.880;37.542;2023-06-22T03:12:39;5.75;;;1.65;;
70951;SDS011;69214;55.880;37.542;2023-06-22T03:15:06;6.50;;;1.87;;
70951;SDS011;69214;55.880;37.542;2023-06-22T03:17:34;4.83;;;1.90;;
70951;SDS011;69214;55.880;37.542;2023-06-22T03:20:02;4.25;;;1.70;;
70951;SDS011;69214;55.880;37.542;2023-06-22T03:22:35;6.03;;;1.77;;
70951;SDS011;69214;55.880;37.542;2023-06-22T03:25:05;4.18;;;2.00;;
70951;SDS011;69214;55.880;37.542;2023-06-22T03:27:37;5.90;;;2.00;;
70951;SDS011;69214;55.880;37.542;2023-06-22T03:30:03;4.87;;;1.80;;
70951;SDS011;69214;55.880;37.542;2023-06-22T03:32:31;6.70;;;2.00;;
70951;SDS011;69214;55.880;37.542;2023-06-22T03:34:57;6.55;;;1.98;;
70951;SDS011;69214;55.880;37.542;2023-06-22T03:37:28;3.83;;;1.80;;
70951;SDS011;69214;55.880;37.542;2023-06-22T03:39:54;3.75;;;1.48;;
70951;SDS011;69214;55.880;37.542;2023-06-22T03:42:20;5.37;;;2.00;;
70951;SDS011;69214;55.880;37.542;2023-06-22T03:44:46;5.15;;;2.28;;
70951;SDS011;69214;55.880;37.542;2023-06-22T03:47:13;5.38;;;1.85;;
70951;SDS011;69214;55.880;37.542;2023-06-22T03:49:39;4.27;;;2.13;;
70951;SDS011;69214;55.880;37.542;2023-06-22T03:52:05;4.65;;;1.73;;
70951;SDS011;69214;55.880;37.542;2023-06-22T03:54:31;3.15;;;1.90;;
70951;SDS011;69214;55.880;37.542;2023-06-22T03:56:57;4.35;;;2.03;;
70951;SDS011;69214;55.880;37.542;2023-06-22T03:59:24;4.72;;;1.80;;
70951;SDS011;69214;55.880;37.542;2023-06-22T04:01:50;4.30;;;1.97;;
70951;SDS011;69214;55.880;37.542;2023-06-22T04:04:19;3.75;;;2.00;;
70951;SDS011;69214;55.880;37.542;2023-06-22T04:06:46;5.93;;;2.30;;
70951;SDS011;69214;55.880;37.542;2023-06-22T04:09:11;5.38;;;2.25;;
70951;SDS011;69214;55.880;37.542;2023-06-22T04:11:38;5.70;;;2.10;;
70951;SDS011;69214;55.880;37.542;2023-06-22T04:14:04;4.50;;;2.40;;
70951;SDS011;69214;55.880;37.542;2023-06-22T04:16:29;4.80;;;2.55;;
70951;SDS011;69214;55.880;37.542;2023-06-22T04:18:55;4.20;;;2.37;;
70951;SDS011;69214;55.880;37.542;2023-06-22T04:21:21;4.70;;;2.20;;
70951;SDS011;69214;55.880;37.542;2023-06-22T04:23:47;3.90;;;2.22;;
70951;SDS011;69214;55.880;37.542;2023-06-22T04:26:13;4.40;;;2.30;;
70951;SDS011;69214;55.880;37.542;2023-06-22T04:28:40;4.25;;;2.42;;
70951;SDS011;69214;55.880;37.542;2023-06-22T04:31:06;5.60;;;2.50;;
70951;SDS011;69214;55.880;37.542;2023-06-22T04:33:33;4.88;;;2.20;;
70951;SDS011;69214;55.880;37.542;2023-06-22T04:35:58;4.13;;;2.50;;
70951;SDS011;69214;55.880;37.542;2023-06-22T04:38:27;5.75;;;2.72;;
70951;SDS011;69214;55.880;37.542;2023-06-22T04:40:53;4.37;;;2.70;;
70951;SDS011;69214;55.880;37.542;2023-06-22T04:43:19;3.67;;;2.50;;
70951;SDS011;69214;55.880;37.542;2023-06-22T04:45:45;4.13;;;2.33;;
70951;SDS011;69214;55.880;37.542;2023-06-22T04:48:11;4.43;;;2.70;;
70951;SDS011;69214;55.880;37.542;2023-06-22T04:50:42;4.65;;;2.70;;
70951;SDS011;69214;55.880;37.542;2023-06-22T04:53:08;3.92;;;2.38;;
70951;SDS011;69214;55.880;37.542;2023-06-22T04:55:38;5.00;;;2.45;;
70951;SDS011;69214;55.880;37.542;2023-06-22T04:58:07;4.13;;;2.20;;
70951;SDS011;69214;55.880;37.542;2023-06-22T05:00:33;4.88;;;2.15;;
70951;SDS011;69214;55.880;37.542;2023-06-22T05:03:01;4.57;;;2.60;;
70951;SDS011;69214;55.880;37.542;2023-06-22T05:05:29;4.03;;;2.42;;
70951;SDS011;69214;55.880;37.542;2023-06-22T05:07:56;4.25;;;2.08;;
70951;SDS011;69214;55.880;37.542;2023-06-22T05:10:25;3.60;;;2.10;;
70951;SDS011;69214;55.880;37.542;2023-06-22T05:12:51;3.58;;;2.03;;
70951;SDS011;69214;55.880;37.542;2023-06-22T05:15:17;3.55;;;2.10;;
70951;SDS011;69214;55.880;37.542;2023-06-22T05:17:48;3.53;;;2.17;;
70951;SDS011;69214;55.880;37.542;2023-06-22T05:20:14;3.57;;;2.40;;
70951;SDS011;69214;55.880;37.542;2023-06-22T05:22:43;5.07;;;2.50;;
70951;SDS011;69214;55.880;37.542;2023-06-22T05:25:09;4.35;;;2.95;;
70951;SDS011;69214;55.880;37.542;2023-06-22T05:27:37;5.53;;;3.63;;
70951;SDS011;69214;55.880;37.542;2023-06-22T05:30:06;4.40;;;3.50;;
70951;SDS011;69214;55.880;37.542;2023-06-22T05:32:32;4.47;;;3.97;;
70951;SDS011;69214;55.880;37.542;2023-06-22T05:34:59;6.07;;;3.92;;
70951;SDS011;69214;55.880;37.542;2023-06-22T05:37:25;5.70;;;4.45;;
70951;SDS011;69214;55.880;37.542;2023-06-22T05:39:52;5.40;;;4.78;;
70951;SDS011;69214;55.880;37.542;2023-06-22T05:42:19;4.47;;;3.90;;
70951;SDS011;69214;55.880;37.542;2023-06-22T05:44:45;7.25;;;4.10;;
70951;SDS011;69214;55.880;37.542;2023-06-22T05:47:12;6.63;;;4.80;;
70951;SDS011;69214;55.880;37.542;2023-06-22T05:49:38;6.82;;;4.65;;
70951;SDS011;69214;55.880;37.542;2023-06-22T05:52:04;7.47;;;5.10;;
70951;SDS011;69214;55.880;37.542;2023-06-22T05:54:30;5.88;;;5.35;;
70951;SDS011;69214;55.880;37.542;2023-06-22T05:56:56;6.47;;;5.88;;
70951;SDS011;69214;55.880;37.542;2023-06-22T05:59:22;6.68;;;6.07;;
70951;SDS011;69214;55.880;37.542;2023-06-22T06:01:48;5.97;;;5.37;;
70951;SDS011;69214;55.880;37.542;2023-06-22T06:04:17;6.57;;;5.88;;
70951;SDS011;69214;55.880;37.542;2023-06-22T06:06:43;6.93;;;6.30;;
70951;SDS011;69214;55.880;37.542;2023-06-22T06:09:09;7.65;;;6.95;;
70951;SDS011;69214;55.880;37.542;2023-06-22T06:11:37;7.50;;;6.90;;
70951;SDS011;69214;55.880;37.542;2023-06-22T06:14:03;7.70;;;7.07;;
70951;SDS011;69214;55.880;37.542;2023-06-22T06:16:29;8.05;;;7.35;;
70951;SDS011;69214;55.880;37.542;2023-06-22T06:18:55;8.68;;;7.97;;
70951;SDS011;69214;55.880;37.542;2023-06-22T06:21:22;8.70;;;8.00;;
70951;SDS011;69214;55.880;37.542;2023-06-22T06:23:47;7.90;;;7.30;;
70951;SDS011;69214;55.880;37.542;2023-06-22T06:26:13;7.18;;;6.43;;
70951;SDS011;69214;55.880;37.542;2023-06-22T06:28:43;8.35;;;7.63;;
70951;SDS011;69214;55.880;37.542;2023-06-22T06:31:09;9.00;;;8.30;;
70951;SDS011;69214;55.880;37.542;2023-06-22T06:33:35;8.30;;;7.70;;
70951;SDS011;69214;55.880;37.542;2023-06-22T06:36:02;7.95;;;7.25;;
70951;SDS011;69214;55.880;37.542;2023-06-22T06:38:30;8.13;;;7.35;;
70951;SDS011;69214;55.880;37.542;2023-06-22T06:40:57;8.17;;;7.47;;
70951;SDS011;69214;55.880;37.542;2023-06-22T06:43:23;8.07;;;7.47;;
70951;SDS011;69214;55.880;37.542;2023-06-22T06:45:50;8.63;;;7.93;;
70951;SDS011;69214;55.880;37.542;2023-06-22T06:48:16;6.57;;;5.85;;
70951;SDS011;69214;55.880;37.542;2023-06-22T06:50:43;7.47;;;6.78;;
70951;SDS011;69214;55.880;37.542;2023-06-22T06:53:09;5.67;;;5.07;;
70951;SDS011;69214;55.880;37.542;2023-06-22T06:55:36;5.53;;;5.03;;
70951;SDS011;69214;55.880;37.542;2023-06-22T06:58:02;5.85;;;5.18;;
70951;SDS011;69214;55.880;37.542;2023-06-22T07:00:33;4.70;;;4.30;;
70951;SDS011;69214;55.880;37.542;2023-06-22T07:03:01;5.00;;;4.50;;
70951;SDS011;69214;55.880;37.542;2023-06-22T07:05:27;4.50;;;4.10;;
70951;SDS011;69214;55.880;37.542;2023-06-22T07:07:54;3.53;;;3.10;;
70951;SDS011;69214;55.880;37.542;2023-06-22T07:10:20;3.65;;;3.22;;
70951;SDS011;69214;55.880;37.542;2023-06-22T07:12:46;4.10;;;3.35;;
70951;SDS011;69214;55.880;37.542;2023-06-22T07:15:12;4.40;;;3.60;;
70951;SDS011;69214;55.880;37.542;2023-06-22T07:17:39;3.78;;;3.38;;
70951;SDS011;69214;55.880;37.542;2023-06-22T07:20:08;4.90;;;3.42;;
70951;SDS011;69214;55.880;37.542;2023-06-22T07:22:39;4.57;;;3.80;;
70951;SDS011;69214;55.880;37.542;2023-06-22T07:25:06;3.95;;;3.40;;
70951;SDS011;69214;55.880;37.542;2023-06-22T07:27:38;4.07;;;3.03;;
70951;SDS011;69214;55.880;37.542;2023-06-22T07:30:08;3.70;;;2.85;;
70951;SDS011;69214;55.880;37.542;2023-06-22T07:32:35;3.47;;;2.80;;
70951;SDS011;69214;55.880;37.542;2023-06-22T07:35:01;3.63;;;2.75;;
70951;SDS011;69214;55.880;37.542;2023-06-22T07:37:30;4.05;;;2.63;;
70951;SDS011;69214;55.880;37.542;2023-06-22T07:39:55;3.70;;;2.23;;
70951;SDS011;69214;55.880;37.542;2023-06-22T07:42:27;4.68;;;2.60;;
70951;SDS011;69214;55.880;37.542;2023-06-22T07:44:54;4.25;;;2.30;;
70951;SDS011;69214;55.880;37.542;2023-06-22T07:47:20;3.50;;;2.08;;
70951;SDS011;69214;55.880;37.542;2023-06-22T07:49:50;3.88;;;2.50;;
70951;SDS011;69214;55.880;37.542;2023-06-22T07:52:17;3.50;;;2.27;;
70951;SDS011;69214;55.880;37.542;2023-06-22T07:54:42;3.15;;;1.50;;
70951;SDS011;69214;55.880;37.542;2023-06-22T07:57:08;2.78;;;1.90;;
70951;SDS011;69214;55.880;37.542;2023-06-22T07:59:34;4.47;;;1.97;;
70951;SDS011;69214;55.880;37.542;2023-06-22T08:02:00;3.97;;;2.15;;
70951;SDS011;69214;55.880;37.542;2023-06-22T08:04:28;5.32;;;1.90;;
70951;SDS011;69214;55.880;37.542;2023-06-22T08:06:56;2.92;;;1.70;;
70951;SDS011;69214;55.880;37.542;2023-06-22T08:09:22;4.00;;;1.70;;
70951;SDS011;69214;55.880;37.542;2023-06-22T08:11:47;3.88;;;2.40;;
70951;SDS011;69214;55.880;37.542;2023-06-22T08:14:14;3.60;;;2.00;;
70951;SDS011;69214;55.880;37.542;2023-06-22T08:16:41;2.97;;;1.88;;
70951;SDS011;69214;55.880;37.542;2023-06-22T08:19:07;3.50;;;1.97;;
70951;SDS011;69214;55.880;37.542;2023-06-22T08:21:33;2.95;;;1.67;;
70951;SDS011;69214;55.880;37.542;2023-06-22T08:23:59;7.33;;;1.87;;
70951;SDS011;69214;55.880;37.542;2023-06-22T08:26:24;7.60;;;1.73;;
70951;SDS011;69214;55.880;37.542;2023-06-22T08:28:50;3.80;;;1.70;;
70951;SDS011;69214;55.880;37.542;2023-06-22T08:31:16;4.17;;;1.83;;
70951;SDS011;69214;55.880;37.542;2023-06-22T08:33:42;2.55;;;1.33;;
70951;SDS011;69214;55.880;37.542;2023-06-22T08:36:10;2.97;;;1.30;;
70951;SDS011;69214;55.880;37.542;2023-06-22T08:38:38;3.17;;;1.45;;
70951;SDS011;69214;55.880;37.542;2023-06-22T08:41:04;3.90;;;1.47;;
70951;SDS011;69214;55.880;37.542;2023-06-22T08:43:30;7.78;;;1.27;;
70951;SDS011;69214;55.880;37.542;2023-06-22T08:45:56;2.63;;;1.10;;
70951;SDS011;69214;55.880;37.542;2023-06-22T08:48:21;2.77;;;1.20;;
70951;SDS011;69214;55.880;37.542;2023-06-22T08:50:47;2.70;;;1.10;;
70951;SDS011;69214;55.880;37.542;2023-06-22T08:53:13;4.38;;;0.98;;
70951;SDS011;69214;55.880;37.542;2023-06-22T08:55:39;3.20;;;0.90;;
70951;SDS011;69214;55.880;37.542;2023-06-22T08:58:04;3.15;;;0.90;;
70951;SDS011;69214;55.880;37.542;2023-06-22T09:00:30;2.80;;;1.00;;
70951;SDS011;69214;55.880;37.542;2023-06-22T09:03:00;2.83;;;0.83;;
70951;SDS011;69214;55.880;37.542;2023-06-22T09:05:26;3.20;;;1.17;;
70951;SDS011;69214;55.880;37.542;2023-06-22T09:07:51;3.83;;;1.00;;
70951;SDS011;69214;55.880;37.542;2023-06-22T09:10:20;3.83;;;1.00;;
70951;SDS011;69214;55.880;37.542;2023-06-22T09:12:46;2.90;;;1.10;;
70951;SDS011;69214;55.880;37.542;2023-06-22T09:15:12;3.60;;;0.90;;
70951;SDS011;69214;55.880;37.542;2023-06-22T09:17:38;2.88;;;0.82;;
70951;SDS011;69214;55.880;37.542;2023-06-22T09:20:05;3.13;;;1.02;;
70951;SDS011;69214;55.880;37.542;2023-06-22T09:22:32;2.42;;;0.90;;
70951;SDS011;69214;55.880;37.542;2023-06-22T09:24:58;2.67;;;0.90;;
70951;SDS011;69214;55.880;37.542;2023-06-22T09:27:25;5.97;;;1.05;;
70951;SDS011;69214;55.880;37.542;2023-06-22T09:29:51;2.55;;;0.80;;
70951;SDS011;69214;55.880;37.542;2023-06-22T09:32:17;2.50;;;0.80;;
70951;SDS011;69214;55.880;37.542;2023-06-22T09:34:43;2.47;;;0.83;;
70951;SDS011;69214;55.880;37.542;2023-06-22T09:37:09;2.15;;;0.80;;
70951;SDS011;69214;55.880;37.542;2023-06-22T09:39:35;3.58;;;0.80;;
70951;SDS011;69214;55.880;37.542;2023-06-22T09:42:02;2.93;;;1.00;;
70951;SDS011;69214;55.880;37.542;2023-06-22T09:44:28;3.25;;;0.90;;
70951;SDS011;69214;55.880;37.542;2023-06-22T09:46:54;2.55;;;1.00;;
70951;SDS011;69214;55.880;37.542;2023-06-22T09:49:19;3.28;;;1.00;;
70951;SDS011;69214;55.880;37.542;2023-06-22T09:51:45;3.70;;;0.90;;
70951;SDS011;69214;55.880;37.542;2023-06-22T09:54:11;3.00;;;0.90;;
70951;SDS011;69214;55.880;37.542;2023-06-22T09:56:37;3.87;;;1.00;;
70951;SDS011;69214;55.880;37.542;2023-06-22T09:59:03;4.17;;;1.07;;
70951;SDS011;69214;55.880;37.542;2023-06-22T10:01:29;2.90;;;1.02;;
70951;SDS011;69214;55.880;37.542;2023-06-22T10:03:55;3.30;;;1.10;;
70951;SDS011;69214;55.880;37.542;2023-06-22T10:06:22;3.67;;;0.95;;
70951;SDS011;69214;55.880;37.542;2023-06-22T10:08:50;2.90;;;0.90;;
70951;SDS011;69214;55.880;37.542;2023-06-22T10:11:17;2.30;;;0.80;;
70951;SDS011;69214;55.880;37.542;2023-06-22T10:13:42;2.97;;;1.10;;
70951;SDS011;69214;55.880;37.542;2023-06-22T10:16:08;2.95;;;1.13;;
70951;SDS011;69214;55.880;37.542;2023-06-22T10:18:34;3.13;;;0.82;;
70951;SDS011;69214;55.880;37.542;2023-06-22T10:21:00;2.60;;;0.90;;
70951;SDS011;69214;55.880;37.542;2023-06-22T10:23:26;3.40;;;1.08;;
70951;SDS011;69214;55.880;37.542;2023-06-22T10:25:52;3.22;;;0.98;;
70951;SDS011;69214;55.880;37.542;2023-06-22T10:28:18;3.60;;;1.00;;
70951;SDS011;69214;55.880;37.542;2023-06-22T10:30:44;2.60;;;1.00;;
70951;SDS011;69214;55.880;37.542;2023-06-22T10:33:11;2.45;;;0.75;;
70951;SDS011;69214;55.880;37.542;2023-06-22T10:35:37;4.90;;;1.30;;
70951;SDS011;69214;55.880;37.542;2023-06-22T10:38:04;3.25;;;1.20;;
70951;SDS011;69214;55.880;37.542;2023-06-22T10:40:31;3.43;;;1.20;;
70951;SDS011;69214;55.880;37.542;2023-06-22T10:42:58;2.88;;;0.82;;
70951;SDS011;69214;55.880;37.542;2023-06-22T10:45:24;2.95;;;1.13;;
70951;SDS011;69214;55.880;37.542;2023-06-22T10:47:52;3.38;;;1.00;;
70951;SDS011;69214;55.880;37.542;2023-06-22T10:50:21;3.55;;;1.27;;
70951;SDS011;69214;55.880;37.542;2023-06-22T10:52:49;3.20;;;1.00;;
70951;SDS011;69214;55.880;37.542;2023-06-22T10:55:15;3.33;;;1.20;;
70951;SDS011;69214;55.880;37.542;2023-06-22T10:57:41;2.40;;;0.88;;
70951;SDS011;69214;55.880;37.542;2023-06-22T11:00:09;4.10;;;0.70;;
70951;SDS011;69214;55.880;37.542;2023-06-22T11:02:37;5.22;;;1.35;;
70951;SDS011;69214;55.880;37.542;2023-06-22T11:05:02;2.53;;;0.83;;
70951;SDS011;69214;55.880;37.542;2023-06-22T11:07:29;4.43;;;1.50;;
70951;SDS011;69214;55.880;37.542;2023-06-22T11:09:55;3.55;;;0.90;;
70951;SDS011;69214;55.880;37.542;2023-06-22T11:12:21;3.28;;;1.10;;
70951;SDS011;69214;55.880;37.542;2023-06-22T11:14:47;4.67;;;1.17;;
70951;SDS011;69214;55.880;37.542;2023-06-22T11:17:15;3.72;;;1.17;;
70951;SDS011;69214;55.880;37.542;2023-06-22T11:19:41;3.45;;;1.10;;
70951;SDS011;69214;55.880;37.542;2023-06-22T11:22:07;3.50;;;1.27;;
70951;SDS011;69214;55.880;37.542;2023-06-22T11:24:33;5.67;;;1.10;;
70951;SDS011;69214;55.880;37.542;2023-06-22T11:26:59;3.50;;;1.10;;
70951;SDS011;69214;55.880;37.542;2023-06-22T11:29:24;4.20;;;1.10;;
70951;SDS011;69214;55.880;37.542;2023-06-22T11:31:50;3.45;;;1.00;;
70951;SDS011;69214;55.880;37.542;2023-06-22T11:34:16;3.65;;;1.10;;
70951;SDS011;69214;55.880;37.542;2023-06-22T11:36:42;3.53;;;1.20;;
70951;SDS011;69214;55.880;37.542;2023-06-22T11:39:09;2.83;;;1.08;;
70951;SDS011;69214;55.880;37.542;2023-06-22T11:41:35;4.60;;;1.50;;
70951;SDS011;69214;55.880;37.542;2023-06-22T11:44:01;2.65;;;0.95;;
70951;SDS011;69214;55.880;37.542;2023-06-22T11:46:27;3.70;;;1.15;;
70951;SDS011;69214;55.880;37.542;2023-06-22T11:48:53;3.03;;;1.30;;
70951;SDS011;69214;55.880;37.542;2023-06-22T11:51:18;3.83;;;1.30;;
70951;SDS011;69214;55.880;37.542;2023-06-22T11:53:44;2.70;;;1.07;;
70951;SDS011;69214;55.880;37.542;2023-06-22T11:56:10;3.38;;;1.05;;
70951;SDS011;69214;55.880;37.542;2023-06-22T11:58:36;6.82;;;1.08;;
70951;SDS011;69214;55.880;37.542;2023-06-22T12:01:02;2.53;;;0.87;;
70951;SDS011;69214;55.880;37.542;2023-06-22T12:03:27;4.93;;;1.10;;
70951;SDS011;69214;55.880;37.542;2023-06-22T12:05:54;3.60;;;1.30;;
70951;SDS011;69214;55.880;37.542;2023-06-22T12:08:20;4.97;;;1.30;;
70951;SDS011;69214;55.880;37.542;2023-06-22T12:10:46;3.25;;;1.23;;
70951;SDS011;69214;55.880;37.542;2023-06-22T12:13:12;3.60;;;1.50;;
70951;SDS011;69214;55.880;37.542;2023-06-22T12:15:38;3.08;;;1.13;;
70951;SDS011;69214;55.880;37.542;2023-06-22T12:18:04;5.33;;;1.20;;
70951;SDS011;69214;55.880;37.542;2023-06-22T12:20:30;2.72;;;1.00;;
70951;SDS011;69214;55.880;37.542;2023-06-22T12:22:56;3.40;;;1.38;;
70951;SDS011;69214;55.880;37.542;2023-06-22T12:25:23;3.55;;;1.50;;
70951;SDS011;69214;55.880;37.542;2023-06-22T12:27:50;3.13;;;1.07;;
70951;SDS011;69214;55.880;37.542;2023-06-22T12:30:16;3.40;;;1.25;;
70951;SDS011;69214;55.880;37.542;2023-06-22T12:32:42;4.72;;;1.08;;
70951;SDS011;69214;55.880;37.542;2023-06-22T12:35:08;3.70;;;1.27;;
70951;SDS011;69214;55.880;37.542;2023-06-22T12:37:42;4.32;;;1.40;;
70951;SDS011;69214;55.880;37.542;2023-06-22T12:40:09;3.70;;;1.25;;
70951;SDS011;69214;55.880;37.542;2023-06-22T12:42:35;5.78;;;1.25;;
70951;SDS011;69214;55.880;37.542;2023-06-22T12:45:01;2.85;;;1.02;;
70951;SDS011;69214;55.880;37.542;2023-06-22T12:47:31;3.23;;;1.30;;
70951;SDS011;69214;55.880;37.542;2023-06-22T12:49:57;4.23;;;1.20;;
70951;SDS011;69214;55.880;37.542;2023-06-22T12:52:23;3.45;;;1.30;;
70951;SDS011;69214;55.880;37.542;2023-06-22T12:54:49;3.08;;;1.30;;
70951;SDS011;69214;55.880;37.542;2023-06-22T12:57:14;3.97;;;1.60;;
70951;SDS011;69214;55.880;37.542;2023-06-22T12:59:40;3.28;;;1.13;;
70951;SDS011;69214;55.880;37.542;2023-06-22T13:02:06;2.67;;;1.20;;
70951;SDS011;69214;55.880;37.542;2023-06-22T13:04:32;3.50;;;1.60;;
70951;SDS011;69214;55.880;37.542;2023-06-22T13:06:58;3.45;;;1.55;;
70951;SDS011;69214;55.880;37.542;2023-06-22T13:09:23;4.57;;;1.43;;
70951;SDS011;69214;55.880;37.542;2023-06-22T13:11:51;3.63;;;1.50;;
70951;SDS011;69214;55.880;37.542;2023-06-22T13:14:18;3.58;;;1.48;;
70951;SDS011;69214;55.880;37.542;2023-06-22T13:16:44;3.92;;;1.23;;
70951;SDS011;69214;55.880;37.542;2023-06-22T13:19:10;3.65;;;1.60;;
70951;SDS011;69214;55.880;37.542;2023-06-22T13:21:35;3.10;;;1.50;;
70951;SDS011;69214;55.880;37.542;2023-06-22T13:24:01;3.70;;;1.25;;
70951;SDS011;69214;55.880;37.542;2023-06-22T13:26:28;3.38;;;1.25;;
70951;SDS011;69214;55.880;37.542;2023-06-22T13:28:54;6.10;;;1.52;;
70951;SDS011;69214;55.880;37.542;2023-06-22T13:31:20;4.33;;;1.43;;
70951;SDS011;69214;55.880;37.542;2023-06-22T13:33:46;3.72;;;1.40;;
70951;SDS011;69214;55.880;37.542;2023-06-22T13:36:13;4.35;;;1.45;;
70951;SDS011;69214;55.880;37.542;2023-06-22T13:38:39;3.53;;;1.40;;
70951;SDS011;69214;55.880;37.542;2023-06-22T13:41:05;3.33;;;1.47;;
70951;SDS011;69214;55.880;37.542;2023-06-22T13:43:31;3.07;;;1.20;;
70951;SDS011;69214;55.880;37.542;2023-06-22T13:45:57;3.80;;;1.20;;
70951;SDS011;69214;55.880;37.542;2023-06-22T13:48:23;4.75;;;1.40;;
70951;SDS011;69214;55.880;37.542;2023-06-22T13:50:52;3.67;;;1.25;;
70951;SDS011;69214;55.880;37.542;2023-06-22T13:53:18;3.38;;;1.42;;
70951;SDS011;69214;55.880;37.542;2023-06-22T13:55:44;3.03;;;1.10;;
70951;SDS011;69214;55.880;37.542;2023-06-22T13:58:10;3.93;;;1.10;;
70951;SDS011;69214;55.880;37.542;2023-06-22T14:00:36;2.60;;;1.17;;
70951;SDS011;69214;55.880;37.542;2023-06-22T14:03:02;2.67;;;1.02;;
70951;SDS011;69214;55.880;37.542;2023-06-22T14:05:28;4.63;;;1.63;;
70951;SDS011;69214;55.880;37.542;2023-06-22T14:07:54;4.03;;;1.20;;
70951;SDS011;69214;55.880;37.542;2023-06-22T14:10:20;3.63;;;1.40;;
70951;SDS011;69214;55.880;37.542;2023-06-22T14:12:45;3.80;;;1.13;;
70951;SDS011;69214;55.880;37.542;2023-06-22T14:15:11;2.97;;;1.23;;
70951;SDS011;69214;55.880;37.542;2023-06-22T14:17:37;3.72;;;1.30;;
70951;SDS011;69214;55.880;37.542;2023-06-22T14:20:03;6.20;;;1.10;;
70951;SDS011;69214;55.880;37.542;2023-06-22T14:22:31;3.50;;;1.30;;
70951;SDS011;69214;55.880;37.542;2023-06-22T14:24:56;4.00;;;1.40;;
70951;SDS011;69214;55.880;37.542;2023-06-22T14:27:24;2.78;;;1.10;;
70951;SDS011;69214;55.880;37.542;2023-06-22T14:29:49;4.60;;;1.20;;
70951;SDS011;69214;55.880;37.542;2023-06-22T14:32:15;2.90;;;1.20;;
70951;SDS011;69214;55.880;37.542;2023-06-22T14:34:41;5.27;;;1.50;;
70951;SDS011;69214;55.880;37.542;2023-06-22T14:37:07;3.33;;;1.35;;
70951;SDS011;69214;55.880;37.542;2023-06-22T14:39:35;3.28;;;1.40;;
70951;SDS011;69214;55.880;37.542;2023-06-22T14:42:01;3.50;;;1.30;;